createdAt,value
2017-09-21T00:00:30.604Z,49.70
2017-09-21T00:02:59.196Z,49.50
2017-09-21T00:05:27.902Z,49.70
2017-09-21T00:07:55.735Z,49.50
2017-09-21T00:10:24.375Z,49.10
2017-09-21T00:12:53.014Z,48.90
2017-09-21T00:15:21.589Z,48.80
2017-09-21T00:17:50.188Z,49.30
2017-09-21T00:20:18.869Z,48.50
2017-09-21T00:22:47.461Z,48.60
2017-09-21T00:25:16.070Z,48.40
2017-09-21T00:27:43.856Z,48.40
2017-09-21T00:30:11.663Z,48.50
2017-09-21T00:32:40.269Z,48.10
2017-09-21T00:35:08.127Z,48.00
2017-09-21T00:37:35.948Z,47.70
2017-09-21T00:40:03.769Z,47.60
2017-09-21T00:42:31.667Z,47.50
2017-09-21T00:44:59.468Z,47.20
2017-09-21T00:47:28.019Z,47.00
2017-09-21T00:49:55.811Z,47.00
2017-09-21T00:52:23.624Z,47.00
2017-09-21T00:54:51.428Z,47.70
2017-09-21T00:57:19.286Z,47.30
2017-09-21T00:59:47.162Z,47.60
2017-09-21T01:02:14.985Z,47.80
2017-09-21T01:04:42.816Z,47.80
2017-09-21T01:07:11.364Z,47.70
2017-09-21T01:09:39.188Z,47.60
2017-09-21T01:12:07.043Z,47.50
2017-09-21T01:14:34.835Z,47.50
2017-09-21T01:17:02.642Z,47.40
2017-09-21T01:19:31.304Z,47.50
2017-09-21T01:21:59.231Z,47.30
2017-09-21T01:24:27.160Z,47.10
2017-09-21T01:26:55.914Z,47.10
2017-09-21T01:29:23.804Z,47.10
2017-09-21T01:31:57.460Z,47.00
2017-09-21T01:34:25.444Z,47.40
2017-09-21T01:36:53.390Z,47.50
2017-09-21T01:39:21.384Z,47.60
2017-09-21T01:41:49.336Z,47.60
2017-09-21T01:44:17.403Z,47.50
2017-09-21T01:46:45.320Z,47.60
2017-09-21T01:49:13.264Z,47.60
2017-09-21T01:51:41.183Z,47.60
2017-09-21T01:54:09.921Z,47.50
2017-09-21T01:56:37.814Z,47.50
2017-09-21T01:59:05.786Z,47.50
2017-09-21T02:01:33.749Z,47.50
2017-09-21T02:04:01.730Z,47.60
2017-09-21T02:06:30.532Z,47.70
2017-09-21T02:08:59.174Z,47.70
2017-09-21T02:11:27.055Z,47.60
2017-09-21T02:13:54.911Z,47.70
2017-09-21T02:16:22.901Z,47.70
2017-09-21T02:18:51.624Z,47.70
2017-09-21T02:21:19.457Z,47.70
2017-09-21T02:23:47.372Z,47.70
2017-09-21T02:26:15.182Z,47.70
2017-09-21T02:28:43.015Z,47.70
2017-09-21T02:31:11.004Z,47.50
2017-09-21T02:33:38.904Z,47.50
2017-09-21T02:36:07.549Z,47.20
2017-09-21T02:38:35.388Z,47.20
2017-09-21T02:41:04.106Z,47.40
2017-09-21T02:43:31.917Z,47.30
2017-09-21T02:45:59.749Z,47.50
2017-09-21T02:48:27.646Z,47.50
2017-09-21T02:50:55.485Z,47.30
2017-09-21T02:53:23.360Z,47.60
2017-09-21T02:55:52.026Z,47.60
2017-09-21T02:58:19.901Z,47.60
2017-09-21T03:00:47.781Z,47.60
2017-09-21T03:03:16.436Z,47.70
2017-09-21T03:05:44.264Z,47.60
2017-09-21T03:08:12.087Z,47.70
2017-09-21T03:10:39.895Z,47.70
2017-09-21T03:13:07.716Z,47.50
2017-09-21T03:15:35.548Z,47.40
2017-09-21T03:18:03.467Z,47.30
2017-09-21T03:20:32.048Z,47.50
2017-09-21T03:23:00.727Z,47.30
2017-09-21T03:25:29.315Z,47.40
2017-09-21T03:27:57.920Z,47.40
2017-09-21T03:30:25.789Z,47.40
2017-09-21T03:32:53.641Z,46.80
2017-09-21T03:35:22.275Z,45.70
2017-09-21T03:37:50.120Z,45.70
2017-09-21T03:40:17.988Z,45.90
2017-09-21T03:42:45.989Z,45.40
2017-09-21T03:45:13.837Z,45.20
2017-09-21T03:47:41.683Z,45.40
2017-09-21T03:50:09.582Z,45.00
2017-09-21T03:52:37.482Z,44.60
2017-09-21T03:55:06.197Z,45.10
2017-09-21T03:57:34.038Z,45.10
2017-09-21T04:00:02.676Z,44.50
2017-09-21T04:02:31.412Z,45.10
2017-09-21T04:04:59.308Z,45.00
2017-09-21T04:07:27.250Z,45.00
2017-09-21T04:09:55.184Z,43.90
2017-09-21T04:12:23.025Z,43.70
2017-09-21T04:14:50.904Z,43.60
2017-09-21T04:17:18.891Z,43.70
2017-09-21T04:19:46.820Z,43.60
2017-09-21T04:22:14.717Z,44.10
2017-09-21T04:24:42.625Z,43.40
2017-09-21T04:27:11.310Z,43.90
2017-09-21T04:29:39.168Z,43.90
2017-09-21T04:32:07.757Z,44.60
2017-09-21T04:34:36.394Z,44.60
2017-09-21T04:37:04.293Z,44.60
2017-09-21T04:39:32.951Z,44.30
2017-09-21T04:42:00.901Z,44.30
2017-09-21T04:44:28.805Z,44.20
2017-09-21T04:46:56.672Z,44.50
2017-09-21T04:49:24.548Z,44.40
2017-09-21T04:51:53.112Z,44.80
2017-09-21T04:54:20.985Z,44.80
2017-09-21T04:56:48.935Z,44.90
2017-09-21T04:59:16.808Z,44.80
2017-09-21T05:01:44.652Z,45.00
2017-09-21T05:04:12.524Z,45.00
2017-09-21T05:06:40.357Z,45.10
2017-09-21T05:09:08.233Z,45.00
2017-09-21T05:11:36.118Z,45.00
2017-09-21T05:14:03.964Z,44.80
2017-09-21T05:16:31.803Z,43.70
2017-09-21T05:18:59.949Z,44.00
2017-09-21T05:21:27.801Z,44.20
2017-09-21T05:23:55.723Z,44.10
2017-09-21T05:26:23.557Z,44.10
2017-09-21T05:28:51.446Z,43.70
2017-09-21T05:31:20.148Z,43.70
2017-09-21T05:33:48.038Z,43.70
2017-09-21T05:36:15.910Z,43.90
2017-09-21T07:20:43.367Z,43.40
2017-09-21T07:23:11.931Z,42.50
2017-09-21T07:25:39.781Z,42.50
2017-09-21T07:28:07.661Z,42.40
2017-09-21T07:30:35.541Z,40.80
2017-09-21T07:33:04.213Z,41.30
2017-09-21T07:35:32.100Z,41.30
2017-09-21T07:38:00.800Z,40.00
2017-09-21T07:40:28.694Z,40.00
2017-09-21T07:42:56.603Z,40.20
2017-09-21T07:45:24.427Z,39.70
2017-09-21T07:47:52.227Z,39.30
2017-09-21T07:50:20.132Z,39.10
2017-09-21T07:52:47.990Z,38.70
2017-09-21T07:55:16.596Z,39.80
2017-09-21T07:57:44.422Z,39.80
2017-09-21T08:00:12.330Z,38.50
2017-09-21T08:02:40.193Z,38.00
2017-09-21T08:05:08.134Z,37.70
2017-09-21T08:07:36.752Z,37.60
2017-09-21T08:10:04.648Z,37.50
2017-09-21T08:12:32.471Z,36.60
2017-09-21T08:15:00.323Z,37.30
2017-09-21T08:17:28.923Z,38.70
2017-09-21T08:19:56.756Z,38.60
2017-09-21T08:22:24.607Z,38.30
2017-09-21T08:24:52.423Z,36.50
2017-09-21T08:27:20.269Z,37.10
2017-09-21T08:29:48.113Z,38.10
2017-09-21T08:32:15.923Z,37.60
2017-09-21T08:34:43.866Z,39.00
2017-09-21T08:37:12.447Z,37.40
2017-09-21T08:39:41.116Z,37.10
2017-09-21T08:42:08.977Z,37.10
2017-09-21T08:44:37.311Z,36.70
2017-09-21T08:47:05.192Z,36.40
2017-09-21T08:49:33.037Z,36.30
2017-09-21T08:52:00.908Z,35.60
2017-09-21T08:54:28.764Z,36.60
2017-09-21T08:56:56.580Z,39.90
2017-09-21T08:59:24.441Z,37.30
2017-09-21T09:01:52.311Z,35.40
2017-09-21T09:04:20.138Z,38.00
2017-09-21T09:06:48.013Z,36.10
2017-09-21T09:09:15.866Z,36.70
2017-09-21T09:11:43.711Z,35.60
2017-09-21T09:14:12.300Z,35.00
2017-09-21T09:16:40.235Z,35.00
2017-09-21T09:19:08.067Z,36.00
2017-09-21T09:21:35.913Z,35.00
2017-09-21T09:24:03.785Z,34.80
2017-09-21T09:26:31.631Z,33.50
2017-09-21T09:28:59.469Z,32.80
2017-09-21T09:31:28.053Z,32.60
2017-09-21T09:33:55.894Z,32.70
2017-09-21T09:36:23.788Z,32.40
2017-09-21T09:38:52.392Z,32.30
2017-09-21T09:41:20.987Z,32.10
2017-09-21T09:43:48.860Z,32.10
2017-09-21T09:46:16.707Z,31.70
2017-09-21T09:48:45.331Z,31.20
2017-09-21T09:51:13.200Z,31.20
2017-09-21T09:53:41.058Z,31.60
2017-09-21T09:56:08.947Z,31.10
2017-09-21T09:58:36.822Z,32.50
2017-09-21T10:01:04.657Z,32.10
2017-09-21T10:03:33.220Z,31.50
2017-09-21T10:06:01.124Z,31.50
2017-09-21T10:08:28.988Z,32.20
2017-09-21T10:10:56.868Z,32.10
2017-09-21T10:13:24.684Z,31.60
2017-09-21T10:15:52.556Z,33.70
2017-09-21T10:18:20.626Z,32.10
2017-09-21T10:20:48.551Z,31.20
2017-09-21T10:23:17.764Z,31.70
2017-09-21T10:25:45.858Z,32.00
2017-09-21T10:28:13.772Z,31.50
2017-09-21T10:30:41.651Z,31.60
2017-09-21T10:33:09.654Z,31.30
2017-09-21T10:35:38.271Z,33.30
2017-09-21T10:38:06.861Z,31.60
2017-09-21T10:40:34.775Z,31.60
2017-09-21T10:43:02.605Z,32.90
2017-09-21T10:45:30.549Z,33.10
2017-09-21T10:47:59.174Z,32.10
2017-09-21T10:50:27.043Z,32.10
2017-09-21T10:52:55.035Z,33.10
2017-09-21T10:55:22.979Z,33.20
2017-09-21T10:57:50.824Z,33.80
2017-09-21T11:00:18.952Z,33.50
2017-09-21T11:02:47.621Z,36.10
2017-09-21T11:05:15.517Z,36.10
2017-09-21T11:07:44.152Z,43.60
2017-09-21T11:10:12.121Z,43.20
2017-09-21T11:12:40.031Z,42.70
2017-09-21T11:15:07.882Z,42.90
2017-09-21T11:17:35.843Z,42.50
2017-09-21T11:20:03.653Z,43.00
2017-09-21T11:22:32.227Z,41.40
2017-09-21T11:25:00.837Z,42.30
2017-09-21T11:27:28.948Z,42.30
2017-09-21T11:29:56.895Z,43.00
2017-09-21T11:32:24.696Z,42.90
2017-09-21T11:34:52.548Z,43.00
2017-09-21T11:37:20.436Z,43.60
2017-09-21T11:39:48.232Z,43.90
2017-09-21T11:42:16.831Z,45.10
2017-09-21T11:44:44.659Z,45.10
2017-09-21T11:47:12.464Z,44.40
2017-09-21T11:49:40.411Z,43.50
2017-09-21T11:52:09.001Z,44.20
2017-09-21T11:54:36.858Z,44.20
2017-09-21T11:57:05.457Z,44.70
2017-09-21T11:59:33.362Z,44.60
2017-09-21T12:02:01.335Z,44.70
2017-09-21T12:04:29.227Z,44.70
2017-09-21T12:06:57.883Z,44.50
2017-09-21T12:09:25.775Z,44.50
2017-09-21T12:11:53.641Z,44.40
2017-09-21T12:14:21.517Z,44.20
2017-09-21T12:16:50.254Z,45.90
2017-09-21T12:19:18.099Z,45.90
2017-09-21T12:21:45.969Z,44.10
2017-09-21T12:24:13.871Z,43.90
2017-09-21T12:26:41.806Z,44.30
2017-09-21T12:29:09.755Z,44.90
2017-09-21T12:31:37.592Z,44.40
2017-09-21T12:34:05.540Z,44.20
2017-09-21T12:36:33.336Z,44.20
2017-09-21T12:39:01.121Z,43.80
2017-09-21T12:41:29.052Z,43.60
2017-09-21T12:43:56.850Z,43.20
2017-09-21T12:46:25.400Z,43.40
2017-09-21T12:48:53.302Z,43.50
2017-09-21T12:51:21.171Z,42.20
2017-09-21T12:53:49.012Z,41.80
2017-09-21T12:56:16.874Z,42.60
2017-09-21T12:58:44.692Z,42.00
2017-09-21T13:01:12.595Z,42.50
2017-09-21T13:03:40.448Z,42.40
2017-09-21T13:06:08.258Z,42.70
2017-09-21T13:08:36.920Z,42.60
2017-09-21T13:11:04.821Z,42.60
2017-09-21T13:13:32.655Z,41.10
2017-09-21T13:16:01.327Z,41.40
2017-09-21T13:18:29.188Z,41.40
2017-09-21T13:20:56.994Z,42.10
2017-09-21T13:23:25.685Z,41.60
2017-09-21T13:25:53.506Z,41.60
2017-09-21T13:28:21.309Z,41.60
2017-09-21T13:30:49.210Z,40.40
2017-09-21T13:33:17.037Z,41.10
2017-09-21T13:35:45.696Z,41.40
2017-09-21T13:38:13.566Z,41.40
2017-09-21T13:40:41.416Z,41.30
2017-09-21T13:43:09.236Z,39.50
2017-09-21T13:45:37.118Z,40.70
2017-09-21T13:48:05.040Z,41.10
2017-09-21T13:50:33.659Z,40.60
2017-09-21T13:53:01.596Z,40.60
2017-09-21T13:55:30.155Z,40.20
2017-09-21T13:57:58.099Z,40.10
2017-09-21T14:00:25.959Z,41.00
2017-09-21T14:02:54.619Z,39.90
2017-09-21T14:05:22.532Z,39.90
2017-09-21T14:07:50.331Z,39.60
2017-09-21T14:10:19.100Z,39.60
2017-09-21T14:12:47.178Z,39.60
2017-09-21T14:15:15.989Z,38.50
2017-09-21T14:17:43.813Z,38.50
2017-09-21T14:20:11.681Z,38.20
2017-09-21T14:22:39.743Z,39.80
2017-09-21T14:25:07.542Z,40.70
2017-09-21T14:27:36.219Z,39.80
2017-09-21T14:30:04.064Z,39.80
2017-09-21T14:32:32.663Z,39.20
2017-09-21T14:35:00.567Z,39.20
2017-09-21T14:37:28.421Z,38.70
2017-09-21T14:39:57.155Z,39.20
2017-09-21T14:42:25.004Z,39.20
2017-09-21T14:44:52.885Z,39.80
2017-09-21T14:47:20.900Z,38.70
2017-09-21T14:49:48.797Z,38.30
2017-09-21T14:52:16.686Z,39.80
2017-09-21T14:54:44.528Z,37.70
2017-09-21T14:57:12.353Z,38.60
2017-09-21T14:59:40.250Z,37.50
2017-09-21T15:02:08.186Z,39.00
2017-09-21T15:04:36.111Z,37.70
2017-09-21T15:07:04.115Z,37.80
2017-09-21T15:09:32.083Z,38.30
2017-09-21T15:12:00.245Z,37.10
2017-09-21T15:14:28.090Z,37.00
2017-09-21T15:16:55.965Z,37.20
2017-09-21T15:19:23.780Z,36.20
2017-09-21T15:21:52.384Z,37.10
2017-09-21T15:24:20.220Z,37.00
2017-09-21T15:26:48.045Z,38.80
2017-09-21T15:29:15.992Z,41.80
2017-09-21T15:31:43.847Z,44.50
2017-09-21T15:34:11.658Z,47.40
2017-09-21T15:36:39.607Z,49.60
2017-09-21T15:39:07.471Z,51.70
2017-09-21T15:41:35.582Z,53.10
2017-09-21T15:44:03.448Z,53.60
2017-09-21T15:46:31.320Z,54.30
2017-09-21T15:48:59.296Z,55.00
2017-09-21T15:51:27.219Z,54.90
2017-09-21T15:53:55.151Z,55.10
2017-09-21T15:56:23.075Z,55.40
2017-09-21T15:58:50.947Z,55.10
2017-09-21T16:01:18.875Z,55.20
2017-09-21T16:03:46.725Z,54.90
2017-09-21T16:06:15.400Z,54.90
2017-09-21T16:08:44.147Z,55.50
2017-09-21T16:11:11.928Z,55.50
2017-09-21T16:13:39.860Z,55.60
2017-09-21T16:16:07.676Z,55.70
2017-09-21T16:18:36.260Z,56.30
2017-09-21T16:21:09.765Z,56.20
2017-09-21T16:23:38.382Z,56.40
2017-09-21T16:26:06.232Z,56.40
2017-09-21T16:28:34.097Z,56.40
2017-09-21T16:31:01.949Z,56.70
2017-09-21T16:33:30.528Z,56.50
2017-09-21T16:35:59.215Z,56.80
2017-09-21T16:38:27.935Z,56.70
2017-09-21T16:40:58.713Z,56.70
2017-09-21T16:43:26.822Z,56.60
2017-09-21T16:45:56.997Z,56.70
2017-09-21T16:48:24.918Z,56.40
2017-09-21T16:50:52.815Z,56.30
2017-09-21T16:53:20.683Z,56.30
2017-09-21T16:55:49.609Z,55.90
2017-09-21T16:58:18.534Z,55.80
2017-09-21T17:00:46.711Z,55.80
2017-09-21T17:03:14.534Z,55.70
2017-09-21T17:05:42.982Z,55.60
2017-09-21T17:08:10.947Z,55.50
2017-09-21T17:10:38.825Z,55.10
2017-09-21T17:13:06.698Z,55.00
2017-09-21T17:15:34.707Z,55.00
2017-09-21T17:18:02.614Z,55.00
2017-09-21T17:20:30.508Z,54.90
2017-09-21T17:22:58.523Z,54.40
2017-09-21T17:25:26.411Z,53.90
2017-09-21T17:27:54.263Z,53.20
2017-09-21T17:30:22.140Z,53.30
2017-09-21T17:32:49.909Z,53.40
2017-09-21T17:35:17.692Z,53.40
2017-09-21T17:37:45.503Z,53.70
2017-09-21T17:40:14.044Z,53.60
2017-09-21T17:42:41.821Z,53.70
2017-09-21T17:45:09.661Z,53.50
2017-09-21T17:47:37.478Z,53.90
2017-09-21T17:50:06.065Z,53.90
2017-09-21T17:52:34.650Z,53.90
2017-09-21T17:55:03.212Z,54.20
2017-09-21T17:57:31.138Z,54.20
2017-09-21T17:59:59.044Z,54.30
2017-09-21T18:02:26.855Z,54.50
2017-09-21T18:04:54.677Z,54.60
2017-09-21T18:07:22.509Z,54.60
2017-09-21T18:09:50.284Z,54.60
2017-09-21T18:12:18.137Z,54.60
2017-09-21T18:14:45.925Z,54.70
2017-09-21T18:17:13.697Z,54.60
2017-09-21T18:19:41.549Z,54.60
2017-09-21T18:22:09.365Z,54.60
2017-09-21T18:24:37.177Z,54.60
2017-09-21T18:27:05.044Z,54.70
2017-09-21T18:29:33.611Z,54.70
2017-09-21T18:32:01.495Z,54.70
2017-09-21T18:34:29.460Z,54.70
2017-09-21T18:36:57.259Z,54.70
2017-09-21T18:39:25.815Z,54.70
2017-09-21T18:41:53.749Z,54.60
2017-09-21T18:44:21.619Z,54.80
2017-09-21T18:46:49.433Z,54.70
2017-09-21T18:49:17.309Z,54.90
2017-09-21T18:51:46.010Z,55.00
2017-09-21T18:54:13.830Z,55.00
2017-09-21T18:56:41.669Z,55.10
2017-09-21T18:59:09.432Z,55.20
2017-09-21T19:01:37.277Z,55.30
2017-09-21T19:04:05.114Z,55.40
2017-09-21T19:06:33.769Z,55.20
2017-09-21T19:09:01.601Z,55.20
2017-09-21T19:11:29.427Z,55.20
2017-09-21T19:13:57.204Z,55.20
2017-09-21T19:16:25.782Z,55.20
2017-09-21T19:18:54.362Z,55.40
2017-09-21T19:21:22.264Z,55.40
2017-09-21T19:23:50.086Z,55.20
2017-09-21T19:26:18.001Z,54.90
2017-09-21T19:28:45.954Z,54.90
2017-09-21T19:31:13.770Z,54.60
2017-09-21T19:33:41.726Z,54.50
2017-09-21T19:36:09.554Z,54.60
2017-09-21T19:38:37.376Z,54.50
2017-09-21T19:41:05.215Z,54.60
2017-09-21T19:43:33.060Z,54.70
2017-09-21T19:46:00.869Z,54.70
2017-09-21T19:48:28.648Z,55.00
2017-09-21T19:50:56.472Z,55.00
2017-09-21T19:53:24.680Z,55.00
2017-09-21T19:55:52.570Z,55.20
2017-09-21T19:58:21.357Z,55.30
2017-09-21T20:00:49.359Z,55.30
2017-09-21T20:03:17.317Z,55.10
2017-09-21T20:05:45.172Z,55.00
2017-09-21T20:08:13.771Z,55.10
2017-09-21T20:10:41.662Z,55.00
2017-09-21T20:13:09.465Z,55.20
2017-09-21T20:15:37.281Z,55.30
2017-09-21T20:18:05.172Z,55.40
2017-09-21T20:20:32.968Z,55.50
2017-09-21T20:23:00.813Z,55.40
2017-09-21T20:25:28.620Z,55.50
2017-09-21T20:27:57.197Z,55.60
2017-09-21T20:30:25.805Z,55.50
2017-09-21T20:32:53.605Z,55.50
2017-09-21T20:35:21.381Z,55.50
2017-09-21T20:37:49.228Z,55.50
2017-09-21T20:40:17.038Z,55.50
2017-09-21T20:42:45.585Z,55.10
2017-09-21T20:45:13.405Z,55.00
2017-09-21T20:47:41.644Z,54.90
2017-09-21T20:50:09.436Z,55.10
2017-09-21T20:52:37.262Z,54.80
2017-09-21T20:55:05.045Z,54.50
2017-09-21T20:57:33.604Z,54.30
2017-09-21T21:00:01.429Z,54.30
2017-09-21T21:02:29.218Z,54.40
2017-09-21T21:04:57.033Z,54.60
2017-09-21T21:07:25.710Z,54.80
2017-09-21T21:09:54.323Z,55.00
2017-09-21T21:12:22.172Z,55.00
2017-09-21T21:14:50.746Z,54.90
2017-09-21T21:17:19.282Z,55.00
2017-09-21T21:19:47.390Z,54.90
2017-09-21T21:22:15.941Z,54.80
2017-09-21T21:24:43.787Z,54.90
2017-09-21T21:27:11.665Z,55.20
2017-09-21T21:29:39.501Z,55.10
2017-09-21T21:32:07.307Z,55.10
2017-09-21T21:34:35.222Z,55.80
2017-09-21T21:37:03.028Z,55.30
2017-09-21T21:39:30.915Z,55.40
2017-09-21T21:41:58.725Z,55.70
2017-09-21T21:44:26.504Z,55.80
2017-09-21T21:46:54.416Z,56.00
2017-09-21T21:49:22.305Z,56.20
2017-09-21T21:51:50.871Z,56.60
2017-09-21T21:54:18.710Z,56.50
2017-09-21T21:56:46.520Z,56.70
2017-09-21T21:59:15.283Z,56.60
2017-09-21T22:01:43.199Z,56.60
2017-09-21T22:04:11.004Z,56.50
2017-09-21T22:06:38.844Z,56.70
2017-09-21T22:09:06.752Z,56.80
2017-09-21T22:11:34.665Z,56.80
2017-09-21T22:14:02.481Z,56.90
2017-09-21T22:16:30.263Z,56.90
2017-09-21T22:18:58.833Z,57.40
2017-09-21T22:21:26.687Z,57.40
2017-09-21T22:23:54.659Z,57.40
2017-09-21T22:26:22.583Z,57.50
2017-09-21T22:28:50.371Z,57.60
2017-09-21T22:31:18.176Z,57.90
2017-09-21T22:33:46.770Z,58.40
2017-09-21T22:36:15.406Z,57.70
2017-09-21T22:38:43.160Z,57.70
2017-09-21T22:41:11.752Z,57.70
2017-09-21T22:43:39.494Z,57.60
2017-09-21T22:46:07.289Z,57.60
2017-09-21T22:48:35.161Z,57.80
2017-09-21T22:51:02.949Z,57.80
2017-09-21T22:53:30.712Z,57.80
2017-09-21T22:55:58.660Z,57.10
2017-09-21T22:58:26.530Z,57.70
2017-09-21T23:00:54.299Z,57.80
2017-09-21T23:03:22.157Z,57.80
2017-09-21T23:05:49.924Z,57.90
2017-09-21T23:08:17.719Z,57.80
2017-09-21T23:10:46.296Z,58.10
2017-09-21T23:13:14.810Z,58.10
2017-09-21T23:15:42.760Z,58.10
2017-09-21T23:18:10.669Z,58.00
2017-09-21T23:20:38.445Z,58.00
2017-09-21T23:23:06.335Z,58.00
2017-09-21T23:25:34.134Z,58.00
2017-09-21T23:28:01.899Z,58.00
2017-09-21T23:30:29.758Z,58.00
2017-09-21T23:32:58.289Z,57.90
2017-09-21T23:35:26.077Z,57.90
2017-09-21T23:37:53.928Z,57.80
2017-09-21T23:40:22.502Z,57.80
2017-09-21T23:42:50.370Z,57.80
2017-09-21T23:45:18.214Z,58.00
2017-09-21T23:47:46.028Z,57.80
2017-09-21T23:50:14.632Z,57.50
2017-09-21T23:52:43.248Z,57.40
2017-09-21T23:55:10.990Z,57.30
2017-09-21T23:57:38.810Z,57.30
